Huntington Beach, California
Current Conditions -  °F | °C
As of 2:53 AM on Saturday 25 Oct 2014 (Local Time) from KSNA Reporting Station
Clear Clear  
Wind Chill: 67°   Ceiling: Unl
Heat Index: 67°   Visibility: 10mi
Dew Point: 60°   Wind: 3mph
Humidity: 79%   Direction: 120°ESE
Pressure: 30"   Gusts: NA
Location:  33.68°N, 118°W
Report Text: KSNA 250953Z AUTO 12003KT 10SM CLR 19/16 A3000 RMK AO2 SLP156 T01940156 TSNO
Loading
Personal Weather Stations






























Interactive Weather Map New forecast layout! Learn more

10-Day Weather Forecast

Advertisements
Track Severe Weather on mobile